Amelia, Virginia
Current Conditions -  °F | °C
As of 4:35 AM on Friday 28 Nov 2014 (Local Time) from KW81 Reporting Station
Clear Clear  
Wind Chill: 25°   Ceiling: Unl
Heat Index: 31°   Visibility: 10mi
Dew Point: 21°   Wind: 6mph
Humidity: 66%   Direction: 300°WNW
Pressure: 30.25"   Gusts: NA
Location:  37.3498°N, 77.9661°W
Report Text: KW81 280935Z AUTO 30005KT 10SM CLR 00/M06 A3025 RMK AO1 T10051062
Loading
Personal Weather Stations






























Interactive Weather Map New forecast layout! Learn more

10-Day Weather Forecast

Advertisements
Track Severe Weather on mobile